createdAt,value
2022-10-09T00:01:16.618Z,0.30
2022-10-09T00:03:45.568Z,0.30
2022-10-09T00:06:18.733Z,0.20
2022-10-09T00:08:45.855Z,0.10
2022-10-09T00:11:15.522Z,0.20
2022-10-09T00:13:42.677Z,0.30
2022-10-09T00:16:12.751Z,0.20
2022-10-09T00:18:39.751Z,0.20
2022-10-09T00:21:14.299Z,0.10
2022-10-09T00:23:40.881Z,0.20
2022-10-09T00:26:08.408Z,0.30
2022-10-09T00:28:38.444Z,0.28
2022-10-09T00:31:07.879Z,0.20
2022-10-09T00:33:35.460Z,0.10
2022-10-09T00:36:07.070Z,0.20
2022-10-09T00:38:33.925Z,0.30
2022-10-09T00:41:01.183Z,0.20
2022-10-09T00:43:48.296Z,0.20
2022-10-09T00:46:39.481Z,0.20
2022-10-09T00:49:17.958Z,0.30
2022-10-09T00:51:47.487Z,0.20
2022-10-09T00:54:17.038Z,0.20
2022-10-09T00:56:44.057Z,0.20
2022-10-09T00:59:11.629Z,0.30
2022-10-09T01:01:40.490Z,0.30
2022-10-09T01:04:07.284Z,0.20
2022-10-09T01:07:04.165Z,0.20
2022-10-09T01:09:48.539Z,0.27
2022-10-09T01:12:30.339Z,0.30
2022-10-09T01:15:13.166Z,0.20
2022-10-09T01:17:45.924Z,0.20
2022-10-09T01:20:29.523Z,0.20
2022-10-09T01:23:23.229Z,0.30
2022-10-09T01:26:19.223Z,0.20
2022-10-09T01:28:51.065Z,0.30
2022-10-09T01:31:19.269Z,0.30
2022-10-09T01:33:46.936Z,0.30
2022-10-09T01:36:16.030Z,0.20
2022-10-09T01:38:44.196Z,0.20
2022-10-09T01:41:11.469Z,0.20
2022-10-09T01:43:40.666Z,0.28
2022-10-09T01:46:22.412Z,0.30
2022-10-09T01:49:06.406Z,0.30
2022-10-09T01:51:59.875Z,0.20
2022-10-09T01:54:43.468Z,0.20
2022-10-09T01:57:13.891Z,0.30
2022-10-09T01:59:44.584Z,0.30
2022-10-09T02:02:11.821Z,0.30
2022-10-09T02:04:43.137Z,0.20
2022-10-09T02:07:10.506Z,0.20
2022-10-09T02:09:39.548Z,0.30
2022-10-09T02:12:09.815Z,0.30
2022-10-09T02:14:36.878Z,0.30
2022-10-09T02:17:13.391Z,0.30
2022-10-09T02:19:47.682Z,0.20
2022-10-09T02:22:44.157Z,0.20
2022-10-09T02:25:11.440Z,0.25
2022-10-09T02:27:38.419Z,0.30
2022-10-09T02:30:08.317Z,0.30
2022-10-09T02:32:35.280Z,0.30
2022-10-09T02:35:01.995Z,0.30
2022-10-09T02:37:28.700Z,0.20
2022-10-09T02:39:55.417Z,0.20
2022-10-09T02:42:22.215Z,0.20
2022-10-09T02:44:49.029Z,0.20
2022-10-09T02:47:15.758Z,0.20
2022-10-09T02:49:42.409Z,0.30
2022-10-09T02:52:09.089Z,0.30
2022-10-09T02:54:35.919Z,0.30
2022-10-09T02:57:02.838Z,0.30
2022-10-09T02:59:29.515Z,0.30
2022-10-09T03:01:56.290Z,0.30
2022-10-09T03:04:23.086Z,0.30
2022-10-09T03:06:49.816Z,0.30
2022-10-09T03:09:16.591Z,0.20
2022-10-09T03:11:43.337Z,0.20
2022-10-09T03:14:10.145Z,0.20
2022-10-09T03:16:36.827Z,0.30
2022-10-09T03:19:03.693Z,0.30
2022-10-09T03:21:30.426Z,0.23
2022-10-09T03:23:57.201Z,0.30
2022-10-09T03:26:26.448Z,0.30
2022-10-09T03:28:54.835Z,0.30
2022-10-09T03:31:52.002Z,0.30
2022-10-09T03:34:12.387Z,0.28
2022-10-09T03:36:39.058Z,0.20
2022-10-09T03:39:05.806Z,0.20
2022-10-09T03:41:32.556Z,0.20
2022-10-09T03:43:59.349Z,0.20
2022-10-09T03:46:26.073Z,0.20
2022-10-09T03:48:52.978Z,0.22
2022-10-09T03:51:19.685Z,0.30
2022-10-09T03:53:46.374Z,0.30
2022-10-09T03:56:13.135Z,0.30
2022-10-09T03:58:39.966Z,0.30
2022-10-09T04:01:06.797Z,0.30
2022-10-09T04:03:33.629Z,0.30
2022-10-09T04:06:00.408Z,0.30
2022-10-09T04:08:27.746Z,0.30
2022-10-09T04:11:00.943Z,0.30
2022-10-09T04:13:28.095Z,0.30
2022-10-09T04:15:55.818Z,0.30
2022-10-09T04:18:22.734Z,0.30
2022-10-09T04:20:51.491Z,0.30
2022-10-09T04:23:19.572Z,0.30
2022-10-09T04:25:46.687Z,0.20
2022-10-09T04:28:13.470Z,0.20
2022-10-09T04:30:40.165Z,0.20
2022-10-09T04:33:11.792Z,0.20
2022-10-09T04:35:49.241Z,0.20
2022-10-09T04:38:16.027Z,0.20
2022-10-09T04:40:42.803Z,0.20
2022-10-09T04:43:09.563Z,0.20
2022-10-09T04:45:40.808Z,0.23
2022-10-09T04:48:07.560Z,0.30
2022-10-09T04:50:34.256Z,0.30
2022-10-09T04:53:00.970Z,0.30
2022-10-09T04:55:27.669Z,0.30
2022-10-09T04:57:54.539Z,0.30
2022-10-09T05:00:21.357Z,0.30
2022-10-09T05:02:48.214Z,0.30
2022-10-09T05:05:15.255Z,0.30
2022-10-09T05:07:41.972Z,0.30
2022-10-09T05:10:08.928Z,0.30
2022-10-09T05:12:35.747Z,0.30
2022-10-09T05:15:02.465Z,0.30
2022-10-09T05:17:29.260Z,0.30
2022-10-09T05:19:56.044Z,0.40
2022-10-09T05:22:22.759Z,0.30
2022-10-09T05:24:49.508Z,0.30
2022-10-09T05:27:16.260Z,0.30
2022-10-09T05:29:43.229Z,0.30
2022-10-09T05:32:09.968Z,0.30
2022-10-09T05:34:36.707Z,0.30
2022-10-09T05:37:03.520Z,0.30
2022-10-09T05:39:30.332Z,0.30
2022-10-09T05:41:57.309Z,0.30
2022-10-09T05:44:24.575Z,0.30
2022-10-09T05:46:51.249Z,0.30
2022-10-09T05:49:17.920Z,0.30
2022-10-09T05:51:44.638Z,0.30
2022-10-09T05:54:16.429Z,0.30
2022-10-09T05:56:45.272Z,0.30
2022-10-09T05:59:15.206Z,0.30
2022-10-09T06:01:44.447Z,0.30
2022-10-09T06:04:22.264Z,0.30
2022-10-09T06:06:49.692Z,0.30
2022-10-09T06:09:18.795Z,0.30
2022-10-09T06:11:46.251Z,0.30
2022-10-09T06:14:13.651Z,0.30
2022-10-09T06:16:42.704Z,0.30
2022-10-09T06:19:12.305Z,0.30
2022-10-09T06:21:39.517Z,0.30
2022-10-09T06:24:07.031Z,0.30
2022-10-09T06:26:34.506Z,0.30
2022-10-09T06:29:02.448Z,0.20
2022-10-09T06:31:32.087Z,0.20
2022-10-09T06:34:00.659Z,0.20
2022-10-09T06:36:33.542Z,0.20
2022-10-09T06:39:02.682Z,0.20
2022-10-09T06:41:29.983Z,0.20
2022-10-09T06:43:57.894Z,0.20
2022-10-09T06:46:27.650Z,0.30
2022-10-09T06:48:54.768Z,0.30
2022-10-09T06:51:23.323Z,0.30
2022-10-09T06:53:53.052Z,0.22
2022-10-09T06:56:22.252Z,0.28
2022-10-09T06:58:49.633Z,0.20
2022-10-09T07:01:20.527Z,0.20
2022-10-09T07:03:52.513Z,0.20
2022-10-09T07:06:24.347Z,0.28
2022-10-09T07:08:53.835Z,0.30
2022-10-09T07:11:29.627Z,0.20
2022-10-09T07:13:59.290Z,0.20
2022-10-09T07:16:28.727Z,0.17
2022-10-09T07:18:55.716Z,0.25
2022-10-09T07:21:24.032Z,0.20
2022-10-09T07:23:50.750Z,0.20
2022-10-09T07:26:23.989Z,0.10
2022-10-09T07:28:52.004Z,0.30
2022-10-09T07:31:19.282Z,0.20
2022-10-09T07:33:55.370Z,0.10
2022-10-09T07:36:22.811Z,0.20
2022-10-09T07:38:51.511Z,0.20
2022-10-09T07:41:19.225Z,0.10
2022-10-09T07:43:46.172Z,0.20
2022-10-09T07:46:18.255Z,0.10
2022-10-09T07:48:45.965Z,0.20
2022-10-09T07:51:17.448Z,0.10
2022-10-09T07:53:45.078Z,0.20
2022-10-09T07:56:19.661Z,0.10
2022-10-09T07:59:08.618Z,0.20
2022-10-09T08:01:36.062Z,0.20
2022-10-09T08:04:03.473Z,0.10
2022-10-09T08:06:31.068Z,0.20
2022-10-09T08:08:59.369Z,0.10
2022-10-09T08:11:28.631Z,0.10
2022-10-09T08:13:55.406Z,0.20
2022-10-09T08:16:23.581Z,0.10
2022-10-09T08:19:00.776Z,0.10
2022-10-09T08:21:28.662Z,0.10
2022-10-09T08:23:56.961Z,0.20
2022-10-09T08:26:24.731Z,0.10
2022-10-09T08:28:57.632Z,0.10
2022-10-09T08:31:25.209Z,0.10
2022-10-09T08:33:54.008Z,0.10
2022-10-09T08:36:21.326Z,0.10
2022-10-09T08:38:48.634Z,0.10
2022-10-09T08:41:26.344Z,0.10
2022-10-09T08:44:01.461Z,0.10
2022-10-09T08:47:01.786Z,0.10
2022-10-09T08:49:47.129Z,0.10
2022-10-09T08:52:21.388Z,0.10
2022-10-09T08:54:48.174Z,0.10
2022-10-09T08:57:17.031Z,0.10
2022-10-09T08:59:44.643Z,0.10
2022-10-09T09:02:39.624Z,0.10
2022-10-09T09:05:24.252Z,0.10
2022-10-09T09:07:54.018Z,0.10
2022-10-09T09:10:59.592Z,0.10
2022-10-09T09:13:52.204Z,0.10
2022-10-09T09:16:19.041Z,0.10
2022-10-09T09:18:59.269Z,0.00
2022-10-09T09:21:41.462Z,0.00
2022-10-09T09:24:17.169Z,0.00
2022-10-09T09:26:48.062Z,0.00
2022-10-09T09:29:17.896Z,0.00
2022-10-09T09:31:47.758Z,0.00
2022-10-09T09:34:24.497Z,0.00
2022-10-09T09:40:46.803Z,0.00
2022-10-09T09:43:04.782Z,0.00
2022-10-09T09:45:31.833Z,0.00
2022-10-09T09:48:06.159Z,0.00
2022-10-09T09:53:31.372Z,0.00
2022-10-09T09:55:58.862Z,0.00
2022-10-09T09:58:45.070Z,0.00
2022-10-09T10:01:21.431Z,0.00
2022-10-09T10:03:50.985Z,0.00
2022-10-09T10:06:25.545Z,0.00
2022-10-09T10:09:13.654Z,0.00
2022-10-09T10:11:47.384Z,0.00
2022-10-09T10:14:16.178Z,0.00
2022-10-09T10:16:43.757Z,0.00
2022-10-09T10:19:38.668Z,0.00
2022-10-09T10:22:21.189Z,0.00
2022-10-09T10:24:50.023Z,0.00
2022-10-09T10:27:38.828Z,0.00
2022-10-09T10:30:11.945Z,0.00
2022-10-09T10:32:50.192Z,0.00
2022-10-09T10:35:31.398Z,0.00
2022-10-09T10:38:10.681Z,0.00
2022-10-09T10:40:52.650Z,0.00
2022-10-09T10:43:37.642Z,0.00
2022-10-09T10:46:25.773Z,0.00
2022-10-09T10:48:52.781Z,0.00
2022-10-09T10:51:31.226Z,0.00
2022-10-09T10:54:26.635Z,0.00
2022-10-09T10:56:56.002Z,0.00
2022-10-09T10:59:37.647Z,0.00
2022-10-09T11:02:14.276Z,0.00
2022-10-09T11:04:40.828Z,0.00
2022-10-09T11:07:19.837Z,0.00
2022-10-09T11:09:58.259Z,0.00
2022-10-09T11:12:47.285Z,0.00
2022-10-09T11:15:26.699Z,0.00
2022-10-09T11:18:04.685Z,0.00
2022-10-09T11:20:40.098Z,0.00
2022-10-09T11:23:40.223Z,0.00
2022-10-09T11:26:26.032Z,0.00
2022-10-09T11:29:00.201Z,0.00
2022-10-09T11:32:08.821Z,0.00
2022-10-09T11:34:40.951Z,0.00
2022-10-09T11:37:14.878Z,0.00
2022-10-09T11:39:41.762Z,0.00
2022-10-09T11:42:12.800Z,0.00
2022-10-09T11:44:48.072Z,0.00
2022-10-09T11:47:17.922Z,0.00
2022-10-09T11:49:58.718Z,0.00
2022-10-09T11:52:44.035Z,0.00
2022-10-09T11:55:29.499Z,0.00
2022-10-09T11:58:09.013Z,0.00
2022-10-09T12:00:36.727Z,0.00
2022-10-09T12:03:06.738Z,0.00
2022-10-09T12:05:44.009Z,0.00
2022-10-09T12:08:24.798Z,0.00
2022-10-09T12:10:55.097Z,0.00
2022-10-09T12:13:49.530Z,0.00
2022-10-09T12:16:48.696Z,0.00
2022-10-09T12:19:30.249Z,0.00
2022-10-09T12:21:56.847Z,0.00
2022-10-09T12:24:27.267Z,0.00
2022-10-09T12:26:56.529Z,0.00
2022-10-09T12:29:40.956Z,0.00
2022-10-09T12:32:30.064Z,0.00
2022-10-09T12:34:57.922Z,0.00
2022-10-09T12:37:35.781Z,0.00
2022-10-09T12:40:30.753Z,0.00
2022-10-09T12:42:58.958Z,0.03
2022-10-09T12:45:30.278Z,0.10
2022-10-09T12:47:59.311Z,0.00
2022-10-09T12:50:36.626Z,0.00
2022-10-09T12:53:06.603Z,0.00
2022-10-09T12:55:36.384Z,0.00
2022-10-09T12:58:07.964Z,0.10
2022-10-09T13:00:35.432Z,0.00
2022-10-09T13:03:02.433Z,0.00
2022-10-09T13:05:40.110Z,0.10
2022-10-09T13:08:24.976Z,0.00
2022-10-09T13:10:52.482Z,0.00
2022-10-09T13:13:30.805Z,0.00
2022-10-09T13:16:09.090Z,0.00
2022-10-09T13:18:37.318Z,0.00
2022-10-09T13:21:29.098Z,0.00
2022-10-09T13:24:13.135Z,0.00
2022-10-09T13:26:43.210Z,0.00
2022-10-09T13:29:12.120Z,0.10
2022-10-09T13:31:43.321Z,0.00
2022-10-09T13:34:12.528Z,0.00
2022-10-09T13:36:39.440Z,0.00
2022-10-09T13:39:06.194Z,0.00
2022-10-09T13:41:33.867Z,0.00
2022-10-09T13:44:00.473Z,0.00
2022-10-09T13:46:27.090Z,0.10
2022-10-09T13:48:53.701Z,0.00
2022-10-09T13:51:20.295Z,0.00
2022-10-09T13:53:46.882Z,0.10
2022-10-09T13:56:13.488Z,0.10
2022-10-09T13:58:40.125Z,0.00
2022-10-09T14:01:09.226Z,0.00
2022-10-09T14:03:36.081Z,0.00
2022-10-09T14:06:03.832Z,0.00
2022-10-09T14:08:30.663Z,0.00
2022-10-09T14:10:59.882Z,0.00
2022-10-09T14:13:27.048Z,0.00
2022-10-09T14:15:53.640Z,0.00
2022-10-09T14:18:20.996Z,0.08
2022-10-09T14:20:48.078Z,0.00
2022-10-09T14:23:14.728Z,0.10
2022-10-09T14:25:41.728Z,0.00
2022-10-09T14:28:08.379Z,0.00
2022-10-09T14:30:39.310Z,0.10
2022-10-09T14:33:05.877Z,0.00
2022-10-09T14:35:32.498Z,0.00
2022-10-09T14:37:59.200Z,0.07
2022-10-09T14:40:25.836Z,0.00
2022-10-09T14:42:52.751Z,0.10
2022-10-09T14:45:19.800Z,0.00
2022-10-09T14:47:46.411Z,0.00
2022-10-09T14:50:13.015Z,0.10
2022-10-09T14:52:39.602Z,0.00
2022-10-09T14:55:06.498Z,0.00
2022-10-09T14:57:35.563Z,0.10
2022-10-09T15:00:04.176Z,0.00
2022-10-09T15:02:30.906Z,0.10
2022-10-09T15:04:57.532Z,0.00
2022-10-09T15:07:24.505Z,0.10
2022-10-09T15:09:51.100Z,0.00
2022-10-09T15:12:17.714Z,0.00
2022-10-09T15:14:44.290Z,0.10
2022-10-09T15:17:10.928Z,0.10
2022-10-09T15:19:37.789Z,0.10
2022-10-09T15:22:04.741Z,0.10
2022-10-09T15:24:31.344Z,0.00
2022-10-09T15:26:58.012Z,0.00
2022-10-09T15:29:24.633Z,0.10
2022-10-09T15:31:51.780Z,0.10
2022-10-09T15:34:19.877Z,0.10
2022-10-09T15:36:46.901Z,0.10
2022-10-09T15:39:13.841Z,0.08
2022-10-09T15:41:41.937Z,0.10
2022-10-09T15:44:17.641Z,0.10
2022-10-09T15:46:45.580Z,0.10
2022-10-09T15:49:12.272Z,0.10
2022-10-09T15:51:39.459Z,0.10
2022-10-09T15:54:06.927Z,0.03
2022-10-09T15:56:39.518Z,0.10
2022-10-09T15:59:06.973Z,0.10
2022-10-09T16:01:33.737Z,0.10
2022-10-09T16:04:00.355Z,0.00
2022-10-09T16:06:26.964Z,0.10
2022-10-09T16:08:58.228Z,0.10
2022-10-09T16:11:26.546Z,0.10
2022-10-09T16:13:54.035Z,0.10
2022-10-09T16:16:23.305Z,0.10
2022-10-09T16:18:50.618Z,0.10
2022-10-09T16:21:24.212Z,0.10
2022-10-09T16:23:55.784Z,0.10
2022-10-09T16:26:25.734Z,0.10
2022-10-09T16:28:52.476Z,0.00
2022-10-09T16:31:31.451Z,0.10
2022-10-09T16:33:58.339Z,0.10
2022-10-09T16:36:24.961Z,0.10
2022-10-09T16:38:51.559Z,0.10
2022-10-09T16:41:20.072Z,0.10
2022-10-09T16:43:48.797Z,0.10
2022-10-09T16:46:20.549Z,0.10
2022-10-09T16:48:48.684Z,0.10
2022-10-09T16:51:18.523Z,0.10
2022-10-09T16:53:52.572Z,0.10
2022-10-09T16:56:21.933Z,0.10
2022-10-09T16:58:49.205Z,0.10
2022-10-09T17:01:16.034Z,0.10
2022-10-09T17:03:42.728Z,0.10
2022-10-09T17:06:12.321Z,0.10
2022-10-09T17:08:39.102Z,0.10
2022-10-09T17:11:09.799Z,0.10
2022-10-09T17:13:37.093Z,0.10
2022-10-09T17:16:09.084Z,0.10
2022-10-09T17:18:36.555Z,0.10
2022-10-09T17:21:06.049Z,0.10
2022-10-09T17:23:33.002Z,0.10
2022-10-09T17:26:04.149Z,0.10
2022-10-09T17:28:30.798Z,0.10
2022-10-09T17:30:57.552Z,0.10
2022-10-09T17:33:24.191Z,0.10
2022-10-09T17:35:50.792Z,0.08
2022-10-09T17:38:17.387Z,0.10
2022-10-09T17:40:43.984Z,0.10
2022-10-09T17:43:10.653Z,0.10
2022-10-09T17:45:42.467Z,0.10
2022-10-09T17:48:09.897Z,0.10
2022-10-09T17:50:37.024Z,0.00
2022-10-09T17:53:04.163Z,0.10
2022-10-09T17:55:31.134Z,0.10
2022-10-09T17:57:57.739Z,0.10
2022-10-09T18:00:26.222Z,0.10
2022-10-09T18:02:52.817Z,0.10
2022-10-09T18:05:19.442Z,0.10
2022-10-09T18:07:46.040Z,0.10
2022-10-09T18:10:16.566Z,0.10
2022-10-09T18:12:43.280Z,0.10
2022-10-09T18:15:10.760Z,0.10
2022-10-09T18:17:37.397Z,0.10
2022-10-09T18:20:04.410Z,0.10
2022-10-09T18:22:31.638Z,0.10
2022-10-09T18:24:58.309Z,0.10
2022-10-09T18:27:25.850Z,0.10
2022-10-09T18:30:22.583Z,0.10
2022-10-09T18:32:52.639Z,0.10
2022-10-09T18:35:19.443Z,0.10
2022-10-09T18:37:46.035Z,0.20
2022-10-09T18:40:13.956Z,0.10
2022-10-09T18:42:40.545Z,0.10
2022-10-09T18:45:08.825Z,0.10
2022-10-09T18:47:36.290Z,0.13
2022-10-09T18:50:06.891Z,0.10
2022-10-09T18:52:35.223Z,0.10
2022-10-09T18:55:03.422Z,0.03
2022-10-09T18:57:30.433Z,0.10
2022-10-09T18:59:58.364Z,0.10
2022-10-09T19:02:26.959Z,0.10
2022-10-09T19:04:54.693Z,0.10
2022-10-09T19:07:21.384Z,0.10
2022-10-09T19:09:56.299Z,0.10
2022-10-09T19:12:24.730Z,0.10
2022-10-09T19:14:51.699Z,0.10
2022-10-09T19:17:18.358Z,0.10
2022-10-09T19:19:44.968Z,0.10
2022-10-09T19:22:15.808Z,0.10
2022-10-09T19:24:44.111Z,0.10
2022-10-09T19:27:10.765Z,0.10
2022-10-09T19:29:37.683Z,0.10
2022-10-09T19:32:04.311Z,0.10
2022-10-09T19:34:31.087Z,0.10
2022-10-09T19:36:57.868Z,0.10
2022-10-09T19:39:24.791Z,0.10
2022-10-09T19:41:51.468Z,0.10
2022-10-09T19:44:18.462Z,0.10
2022-10-09T19:46:45.705Z,0.10
2022-10-09T19:49:12.484Z,0.10
2022-10-09T19:51:39.491Z,0.10
2022-10-09T19:54:07.901Z,0.10
2022-10-09T19:56:35.594Z,0.10
2022-10-09T19:59:04.618Z,0.10
2022-10-09T20:01:35.096Z,0.10
2022-10-09T20:04:07.869Z,0.10
2022-10-09T20:06:40.590Z,0.10
2022-10-09T20:09:08.984Z,0.10
2022-10-09T20:11:36.348Z,0.10
2022-10-09T20:14:31.716Z,0.10
2022-10-09T20:20:10.697Z,0.03
2022-10-09T20:23:24.629Z,0.10
2022-10-09T20:26:17.964Z,0.10
2022-10-09T20:34:44.991Z,0.10
2022-10-09T20:37:27.697Z,0.10
2022-10-09T20:42:48.171Z,0.10
2022-10-09T20:45:40.954Z,0.10
2022-10-09T20:48:40.723Z,0.10
2022-10-09T20:51:50.711Z,0.10
2022-10-09T20:54:46.527Z,0.10
2022-10-09T21:00:08.853Z,0.08
2022-10-09T21:02:50.718Z,0.10
2022-10-09T21:05:17.823Z,0.10
2022-10-09T21:07:45.022Z,0.10
2022-10-09T21:10:11.613Z,0.10
2022-10-09T21:12:38.228Z,0.03
2022-10-09T21:15:05.941Z,0.10
2022-10-09T21:17:32.623Z,0.10
2022-10-09T21:19:59.314Z,0.10
2022-10-09T21:22:26.267Z,0.10
2022-10-09T21:24:52.908Z,0.10
2022-10-09T21:27:19.473Z,0.10
2022-10-09T21:29:46.143Z,0.10
2022-10-09T21:32:12.729Z,0.10
2022-10-09T21:34:39.338Z,0.10
2022-10-09T21:37:21.117Z,0.10
2022-10-09T21:39:48.405Z,0.10
2022-10-09T21:42:15.007Z,0.10
2022-10-09T21:44:41.635Z,0.10
2022-10-09T21:47:14.869Z,0.10
2022-10-09T21:49:41.734Z,0.10
2022-10-09T21:52:09.172Z,0.10
2022-10-09T21:54:35.774Z,0.10
2022-10-09T21:57:11.356Z,0.00
2022-10-09T21:59:38.406Z,0.03
2022-10-09T22:02:05.264Z,0.00
2022-10-09T22:04:31.874Z,0.08
2022-10-09T22:06:58.516Z,0.10
2022-10-09T22:09:25.579Z,0.10
2022-10-09T22:11:52.228Z,0.10
2022-10-09T22:14:18.813Z,0.10
2022-10-09T22:16:45.411Z,0.10
2022-10-09T22:19:12.126Z,0.10
2022-10-09T22:21:38.709Z,0.10
2022-10-09T22:24:05.409Z,0.10
2022-10-09T22:26:32.207Z,0.10
2022-10-09T22:28:59.045Z,0.10
2022-10-09T22:31:27.588Z,0.10
2022-10-09T22:33:59.458Z,0.10
2022-10-09T22:36:29.450Z,0.10
2022-10-09T22:38:58.272Z,0.10
2022-10-09T22:41:26.830Z,0.10
2022-10-09T22:43:55.816Z,0.10
2022-10-09T22:46:28.077Z,0.10
2022-10-09T22:48:55.142Z,0.10
2022-10-09T22:51:23.613Z,0.10
2022-10-09T22:53:50.351Z,0.10
2022-10-09T22:56:20.166Z,0.10
2022-10-09T22:58:47.922Z,0.10
2022-10-09T23:01:20.461Z,0.10
2022-10-09T23:03:47.131Z,0.10
2022-10-09T23:06:17.068Z,0.10
2022-10-09T23:08:45.526Z,0.10
2022-10-09T23:11:12.993Z,0.10
2022-10-09T23:13:39.863Z,0.10
2022-10-09T23:16:08.977Z,0.10
2022-10-09T23:18:36.211Z,0.10
2022-10-09T23:21:10.557Z,0.10
2022-10-09T23:23:37.285Z,0.05
2022-10-09T23:26:16.162Z,0.10
2022-10-09T23:28:43.473Z,0.10
2022-10-09T23:31:12.652Z,0.10
2022-10-09T23:33:41.194Z,0.10
2022-10-09T23:36:09.436Z,0.10
2022-10-09T23:38:36.399Z,0.00
2022-10-09T23:41:09.273Z,0.10
2022-10-09T23:43:37.983Z,0.10
2022-10-09T23:46:05.850Z,0.10
2022-10-09T23:48:32.797Z,0.10
2022-10-09T23:50:59.712Z,0.10
2022-10-09T23:53:26.988Z,0.10
2022-10-09T23:55:54.685Z,0.10
2022-10-09T23:58:21.908Z,0.10
